Terminal Aerodrome Forecast
Issued by NWS

Home | Current Version | Previous Version | Text Only | Print | Product List | Glossary Off
Versions: 1 2 3 4 5 6 7 8 9 10 11 12 13 14 15

000
FTUS43 KIWX 140500
TAFSBN
TAF
KSBN 140521Z 1406/1506 19015G25KT 6SM SHRA VCTS OVC050CB
     FM140900 20016G26KT 4SM SHRA BR VCTS OVC025CB
     FM141300 31016G26KT 3SM -SHRA BR OVC008
     FM141700 33015G25KT P6SM VCSH OVC015
     FM150200 32013KT 3SM -SN BR OVC020=

USA.gov is the U.S. government's official web portal to all federal, state and local government web resources and services.